createdAt,value
2022-11-29T00:03:16.830Z,4.70
2022-11-29T00:18:21.068Z,2.97
2022-11-29T00:33:25.479Z,3.23
2022-11-29T00:48:29.760Z,2.87
2022-11-29T01:03:34.203Z,3.60
2022-11-29T01:18:39.178Z,2.80
2022-11-29T01:33:43.778Z,2.53
2022-11-29T01:48:48.952Z,2.77
2022-11-29T02:03:54.304Z,3.37
2022-11-29T02:19:01.513Z,3.80
2022-11-29T02:34:20.034Z,3.20
2022-11-29T02:49:32.773Z,2.80
2022-11-29T03:04:37.377Z,2.17
2022-11-29T03:19:47.254Z,2.50
2022-11-29T03:35:00.374Z,2.60
2022-11-29T03:50:07.209Z,2.30
2022-11-29T04:05:29.722Z,2.90
2022-11-29T04:20:52.422Z,2.93
2022-11-29T04:35:56.553Z,3.67
2022-11-29T04:51:10.862Z,3.50
2022-11-29T05:06:33.161Z,3.20
2022-11-29T05:21:49.349Z,3.20
2022-11-29T05:37:00.740Z,3.30
2022-11-29T05:52:27.644Z,2.70
2022-11-29T06:07:38.489Z,2.90
2022-11-29T06:23:08.859Z,2.77
2022-11-29T06:38:29.500Z,3.03
2022-11-29T06:53:57.312Z,3.00
2022-11-29T07:09:02.943Z,3.23
2022-11-29T07:24:18.720Z,3.00
2022-11-29T07:39:46.169Z,3.00
2022-11-29T07:54:50.391Z,3.50
2022-11-29T08:09:55.312Z,3.07
2022-11-29T08:25:00.696Z,2.30
2022-11-29T08:40:05.352Z,2.93
2022-11-29T08:55:09.910Z,2.77
2022-11-29T09:10:14.917Z,2.60
2022-11-29T09:25:19.534Z,3.40
2022-11-29T09:40:28.468Z,3.60
2022-11-29T09:55:39.327Z,4.20
2022-11-29T10:10:50.871Z,4.70
2022-11-29T10:25:56.581Z,4.07
2022-11-29T10:41:13.013Z,4.50
2022-11-29T10:56:20.143Z,4.50
2022-11-29T11:11:29.459Z,4.57
2022-11-29T11:26:46.328Z,5.27
2022-11-29T11:42:11.977Z,5.03
2022-11-29T11:57:19.946Z,4.40
2022-11-29T12:12:28.897Z,4.00
2022-11-29T12:27:33.500Z,3.67
2022-11-29T12:42:43.880Z,4.37
2022-11-29T12:57:50.912Z,4.13
2022-11-29T13:12:57.556Z,3.90
2022-11-29T13:28:08.839Z,4.97
2022-11-29T13:43:31.469Z,4.13
2022-11-29T13:58:37.708Z,4.30
2022-11-29T14:13:59.938Z,4.90
2022-11-29T14:29:25.044Z,4.87
2022-11-29T14:44:30.474Z,3.50
2022-11-29T14:59:48.987Z,4.10
2022-11-29T15:15:07.871Z,4.40
2022-11-29T15:30:30.432Z,4.57
2022-11-29T15:45:38.431Z,4.40
2022-11-29T16:00:44.673Z,5.07
2022-11-29T16:15:48.957Z,5.63
2022-11-29T16:30:53.425Z,5.50
2022-11-29T16:46:27.049Z,6.00
2022-11-29T17:01:33.649Z,3.83
2022-11-29T17:16:38.016Z,4.53
2022-11-29T17:31:46.479Z,3.70
2022-11-29T17:46:51.236Z,2.87
2022-11-29T18:01:55.650Z,3.77
2022-11-29T18:17:00.408Z,3.60
2022-11-29T18:32:05.096Z,2.50
2022-11-29T18:47:09.410Z,4.50
2022-11-29T19:02:15.283Z,3.57
2022-11-29T19:17:20.063Z,3.70
2022-11-29T19:32:24.989Z,4.50
2022-11-29T19:47:29.277Z,3.90
2022-11-29T20:02:33.819Z,4.13
2022-11-29T20:17:38.703Z,2.80
2022-11-29T20:32:43.039Z,2.40
2022-11-29T20:47:47.297Z,2.27
2022-11-29T21:02:51.700Z,2.30
2022-11-29T21:17:56.276Z,2.30
2022-11-29T21:33:01.082Z,2.20
2022-11-29T21:48:27.164Z,2.57
2022-11-29T22:03:32.885Z,2.30
2022-11-29T22:18:37.499Z,2.87
2022-11-29T22:33:41.990Z,2.63
2022-11-29T22:48:47.401Z,2.87
2022-11-29T23:03:54.340Z,2.83
2022-11-29T23:19:01.559Z,3.10
2022-11-29T23:34:06.295Z,2.93
2022-11-29T23:49:10.679Z,2.77
